KOFK

Norfolk Regional / Karl Stefan Memorial Field Airport

Norfolk, Nebraska, USA
METAR KOFK 170356Z AUTO 26005KT 10SM CLR 05/03 A3028 RMK AO2 SLP263 T00500028
Observed Flight Rules
Oct-17 @ 03:56 UTC (an hour ago) Visual Flight Rules
Wind Visibility Clouds
260° at 5 knots 10 miles
  • Clear skies
Temperatures Readings
Current 5°C / 41°F
Dewpoint 3°C / 37°F
Humidity 87%
Altimeter 30.28" Hg
Pressure 1026.3 hPa
Elevation 470
METAR KOFK 170356Z AUTO 26005KT 10SM CLR 05/03 A3028 RMK AO2 SLP263 T00500028
Observed Flight Rules
Oct-17 @ 03:56 UTC
(an hour ago)
VFR
Wind Visibility
260° at 5 knots 10 miles
Clouds
  • Clear skies
Temperature Dewpoint
5°C / 41°F 3°C / 37°F
Humidity Altimeter Pressure
87% 30.28" Hg 1026.3 hPa